Bookmark and Share
Track history (hours):
 

Alkin Kalkavan

Last reported at 2014-Apr-24 07:32 UTC. Time now 2014-Apr-24 11:07 UTC.
Position N 39°54' E 025°55'.

Length 150 m; draft 7.2 m.

Type: Ship. MMSI: 271000905.

NotesDate/timePositionNaut miles runAvg speedWind from/ knotsBaromVisibWave heightAir tempDewpointWater temp
2014-Apr-24 07:32N 39°54' E 025°55'16314.8
2014-Apr-23 20:33N 37°35' E 024°06'1413.8
2014-Apr-23 19:33N 37°37' E 023°49'1414.1
2014-Apr-23 18:33N 37°48' E 023°38'10 9.7
2014-Apr-23 17:33N 37°57' E 023°35'0 0.0
2014-Apr-23 16:33N 37°57' E 023°35'0 0.0
2014-Apr-23 15:33N 37°57' E 023°35'0 0.0
2014-Apr-23 14:33N 37°57' E 023°35'0 0.0
2014-Apr-23 13:34N 37°57' E 023°35'2 2.3
2014-Apr-23 12:33N 37°55' E 023°36'1 0.9
2014-Apr-23 11:33N 37°55' E 023°37'9 9.5
2014-Apr-23 10:33N 37°46' E 023°42'1615.2
2014-Apr-23 09:30N 37°31' E 023°48'3114.9
2014-Apr-23 07:25N 37°01' E 024°01'1314.7
2014-Apr-23 06:32N 36°49' E 024°07'1515.3
2014-Apr-23 05:33N 36°36' E 024°15'1515.2
2014-Apr-23 04:33N 36°28' E 024°31'1514.9
2014-Apr-23 03:33N 36°20' E 024°47'1515.2
2014-Apr-23 02:33N 36°11' E 025°03'1515.6
2014-Apr-23 01:33N 36°04' E 025°19'1615.7
2014-Apr-23 00:33N 35°56' E 025°36'1615.3
2014-Apr-22 23:29N 35°47' E 025°53'1415.1
2014-Apr-22 22:33N 35°40' E 026°08'1515.2
2014-Apr-22 21:33N 35°30' E 026°22'1615.3
2014-Apr-22 20:31N 35°19' E 026°37'2115.3
2014-Apr-22 19:09N 35°06' E 026°57'1415.0
2014-Apr-22 18:13N 34°57' E 027°10'8515.0
2014-Apr-22 12:33N 34°02' E 028°29'1914.9
2014-Apr-22 11:18N 33°50' E 028°45'2614.8
2014-Apr-22 09:33N 33°32' E 029°08'3714.9
2014-Apr-22 07:04N 33°08' E 029°42'815.0
2014-Apr-22 06:33N 33°04' E 029°49'1515.1
2014-Apr-22 05:33N 32°54' E 030°03'9414.8
2014-Apr-21 23:10N 31°54' E 031°30'1015.1
2014-Apr-21 22:32N 31°48' E 031°38'1813.6
2014-Apr-21 21:14N 31°31' E 031°46'4 5.6
2014-Apr-21 20:34N 31°27' E 031°46'9 0.4
2014-Apr-20 21:32N 31°37' E 031°46'0 0.0
2014-Apr-20 19:15N 31°37' E 031°46'0 0.0
2014-Apr-20 18:27N 31°37' E 031°46'0 0.0
2014-Apr-20 15:29N 31°37' E 031°46'0 0.0
2014-Apr-20 12:28N 31°37' E 031°46'0 0.0
2014-Apr-20 09:20N 31°37' E 031°46'33 1.5
2014-Apr-19 11:31N 31°24' E 032°22'12 2.0
2014-Apr-19 05:25N 31°12' E 032°21'11 0.4
2014-Apr-18 04:09N 31°23' E 032°17'0 0.0
2014-Apr-18 03:33N 31°23' E 032°17'0 0.0
2014-Apr-18 02:29N 31°23' E 032°17'0 0.0
2014-Apr-18 01:32N 31°23' E 032°17'0 0.0
2014-Apr-18 00:13N 31°23' E 032°17'0 0.0
2014-Apr-17 23:28N 31°23' E 032°17'0 0.0
2014-Apr-17 22:26N 31°23' E 032°17'400 8.6
2014-Apr-16 00:04N 35°36' E 026°06'1314.6
2014-Apr-15 23:12N 35°43' E 025°53'1214.3
2014-Apr-15 22:23N 35°49' E 025°41'1214.5
2014-Apr-15 21:33N 35°56' E 025°28'1514.6
2014-Apr-15 20:33N 36°04' E 025°13'1514.7
2014-Apr-15 19:33N 36°12' E 024°58'1514.7
2014-Apr-15 18:33N 36°20' E 024°42'1515.0
2014-Apr-15 17:32N 36°28' E 024°27'1514.2
2014-Apr-15 16:31N 36°37' E 024°13'1414.0
2014-Apr-15 15:31N 36°50' E 024°06'5611.3
2014-Apr-15 10:34N 37°42' E 023°41'1413.9
2014-Apr-15 09:34N 37°55' E 023°36'2 2.0
2014-Apr-15 08:33N 37°57' E 023°36'0 0.0
2014-Apr-15 03:31N 37°57' E 023°36'2 2.0
2014-Apr-15 02:34N 37°56' E 023°37'5 4.5
2014-Apr-15 01:34N 37°51' E 023°39'1312.8
2014-Apr-15 00:34N 37°40' E 023°46'1515.1
2014-Apr-14 23:33N 37°37' E 024°05'9213.2
2014-Apr-14 16:34N 39°09' E 024°09'1615.9
2014-Apr-14 15:33N 39°21' E 023°56'  

Dump ship's entire track history

sailing weather and tide predictions

Alkin Kalkavan — TCOL6 — position and weather